VJC681 VVDN-VVNB
Flight info
| Callsign | VJC681 |
|---|---|
| Flight time | 1h 4m |
| Altitude | 37000 |
| Route | VIDEN2G VIDEN Q2 BISON |
| Aircraft | A21N/M-SDE2E3FGHIRWXY/LB1 |
Departure
| Time | 2026-04-30 07:42 |
|---|---|
| Airport | Da Nang International Airport (VVDN) |
Arrival
| Time | 2026-04-30 08:46 |
|---|---|
| Airport | Noi Bai International Airport (VVNB) |
| Time | Latitude | Longitude | Altitude | Speed | Heading |
|---|---|---|---|---|---|
| 2026-04-30 07:10 | 16.05300 | 108.20197 | 33 ft | 0 kts | 82° |
| 2026-04-30 07:21 | 16.05300 | 108.20196 | 32 ft | 0 kts | 81° |
| 2026-04-30 07:22 | 16.05300 | 108.20192 | 31 ft | 0 kts | 82° |
| 2026-04-30 07:22 | 16.05299 | 108.20189 | 31 ft | 0 kts | 81° |
| 2026-04-30 07:22 | 16.05299 | 108.20187 | 31 ft | 0 kts | 83° |
| 2026-04-30 07:23 | 16.05298 | 108.20184 | 32 ft | 0 kts | 84° |
| 2026-04-30 07:23 | 16.05298 | 108.20181 | 32 ft | 0 kts | 82° |
| 2026-04-30 07:23 | 16.05298 | 108.20179 | 33 ft | 0 kts | 81° |
| 2026-04-30 07:24 | 16.05298 | 108.20178 | 33 ft | 0 kts | 79° |
| 2026-04-30 07:25 | 16.05298 | 108.20177 | 33 ft | 0 kts | 82° |
| 2026-04-30 07:26 | 16.05298 | 108.20176 | 33 ft | 0 kts | 80° |
| 2026-04-30 07:26 | 16.05298 | 108.20175 | 33 ft | 0 kts | 79° |
| 2026-04-30 07:26 | 16.05294 | 108.20159 | 31 ft | 2 kts | 84° |
| 2026-04-30 07:27 | 16.05293 | 108.20147 | 30 ft | 1 kts | 81° |
| 2026-04-30 07:27 | 16.05292 | 108.20138 | 31 ft | 1 kts | 81° |
| 2026-04-30 07:27 | 16.05291 | 108.20129 | 32 ft | 1 kts | 81° |
| 2026-04-30 07:27 | 16.05289 | 108.20120 | 32 ft | 1 kts | 81° |
| 2026-04-30 07:28 | 16.05287 | 108.20111 | 32 ft | 1 kts | 88° |
| 2026-04-30 07:28 | 16.05287 | 108.20102 | 32 ft | 1 kts | 85° |
| 2026-04-30 07:28 | 16.05286 | 108.20093 | 32 ft | 1 kts | 93° |
| 2026-04-30 07:28 | 16.05286 | 108.20084 | 32 ft | 1 kts | 109° |
| 2026-04-30 07:29 | 16.05289 | 108.20076 | 32 ft | 1 kts | 113° |
| 2026-04-30 07:29 | 16.05292 | 108.20068 | 32 ft | 1 kts | 120° |
| 2026-04-30 07:29 | 16.05296 | 108.20060 | 32 ft | 1 kts | 124° |
| 2026-04-30 07:29 | 16.05299 | 108.20053 | 33 ft | 1 kts | 141° |
| 2026-04-30 07:30 | 16.05312 | 108.20044 | 33 ft | 1 kts | 179° |
| 2026-04-30 07:30 | 16.05320 | 108.20045 | 33 ft | 1 kts | 174° |
| 2026-04-30 07:30 | 16.05328 | 108.20044 | 33 ft | 1 kts | 169° |
| 2026-04-30 07:31 | 16.05336 | 108.20042 | 32 ft | 1 kts | 175° |
| 2026-04-30 07:31 | 16.05339 | 108.20043 | 33 ft | 0 kts | 169° |
| 2026-04-30 07:32 | 16.05338 | 108.20043 | 33 ft | 1 kts | 169° |
| 2026-04-30 07:32 | 16.05315 | 108.20046 | 33 ft | 6 kts | 172° |
| 2026-04-30 07:32 | 16.05259 | 108.20055 | 33 ft | 10 kts | 172° |
| 2026-04-30 07:32 | 16.05176 | 108.20067 | 33 ft | 14 kts | 172° |
| 2026-04-30 07:33 | 16.05092 | 108.20079 | 33 ft | 12 kts | 172° |
| 2026-04-30 07:33 | 16.04995 | 108.20093 | 32 ft | 16 kts | 172° |
| 2026-04-30 07:33 | 16.04873 | 108.20111 | 32 ft | 16 kts | 173° |
| 2026-04-30 07:33 | 16.04783 | 108.20123 | 32 ft | 15 kts | 172° |
| 2026-04-30 07:34 | 16.04685 | 108.20138 | 32 ft | 9 kts | 172° |
| 2026-04-30 07:34 | 16.04607 | 108.20150 | 32 ft | 13 kts | 172° |
| 2026-04-30 07:34 | 16.04501 | 108.20165 | 32 ft | 17 kts | 173° |
| 2026-04-30 07:34 | 16.04397 | 108.20180 | 32 ft | 12 kts | 172° |
| 2026-04-30 07:35 | 16.04315 | 108.20192 | 32 ft | 9 kts | 172° |
| 2026-04-30 07:35 | 16.04261 | 108.20199 | 33 ft | 9 kts | 172° |
| 2026-04-30 07:35 | 16.04185 | 108.20210 | 33 ft | 13 kts | 172° |
| 2026-04-30 07:35 | 16.04105 | 108.20222 | 33 ft | 16 kts | 172° |
| 2026-04-30 07:36 | 16.04048 | 108.20230 | 33 ft | 7 kts | 172° |
| 2026-04-30 07:36 | 16.03988 | 108.20240 | 33 ft | 11 kts | 170° |
| 2026-04-30 07:36 | 16.03901 | 108.20253 | 33 ft | 14 kts | 175° |
| 2026-04-30 07:36 | 16.03838 | 108.20261 | 33 ft | 5 kts | 172° |
| 2026-04-30 07:37 | 16.03799 | 108.20267 | 33 ft | 7 kts | 171° |
| 2026-04-30 07:37 | 16.03734 | 108.20276 | 33 ft | 11 kts | 172° |
| 2026-04-30 07:37 | 16.03642 | 108.20290 | 33 ft | 15 kts | 173° |
| 2026-04-30 07:37 | 16.03574 | 108.20299 | 33 ft | 9 kts | 172° |
| 2026-04-30 07:38 | 16.03501 | 108.20310 | 33 ft | 13 kts | 172° |
| 2026-04-30 07:38 | 16.03410 | 108.20323 | 32 ft | 8 kts | 172° |
| 2026-04-30 07:38 | 16.03366 | 108.20329 | 32 ft | 8 kts | 172° |
| 2026-04-30 07:38 | 16.03303 | 108.20339 | 32 ft | 12 kts | 172° |
| 2026-04-30 07:39 | 16.03211 | 108.20352 | 31 ft | 12 kts | 172° |
| 2026-04-30 07:39 | 16.03128 | 108.20364 | 32 ft | 11 kts | 172° |
| 2026-04-30 07:39 | 16.03050 | 108.20376 | 32 ft | 11 kts | 171° |
| 2026-04-30 07:39 | 16.02988 | 108.20376 | 32 ft | 10 kts | 192° |
| 2026-04-30 07:40 | 16.02936 | 108.20339 | 31 ft | 9 kts | 230° |
| 2026-04-30 07:40 | 16.02928 | 108.20323 | 31 ft | 3 kts | 245° |
| 2026-04-30 07:40 | 16.02921 | 108.20291 | 31 ft | 5 kts | 263° |
| 2026-04-30 07:40 | 16.02940 | 108.20255 | 31 ft | 7 kts | 320° |
| 2026-04-30 07:41 | 16.02970 | 108.20245 | 31 ft | 1 kts | 349° |
| 2026-04-30 07:41 | 16.02981 | 108.20243 | 31 ft | 0 kts | 352° |
| 2026-04-30 07:41 | 16.03114 | 108.20225 | 31 ft | 51 kts | 352° |
| 2026-04-30 07:41 | 16.03710 | 108.20137 | 35 ft | 118 kts | 352° |
| 2026-04-30 07:42 | 16.04681 | 108.19993 | 119 ft | 158 kts | 353° |
| 2026-04-30 07:42 | 16.05763 | 108.19797 | 836 ft | 159 kts | 352° |
| 2026-04-30 07:42 | 16.06931 | 108.19632 | 1362 ft | 169 kts | 356° |
| 2026-04-30 07:42 | 16.08114 | 108.19599 | 2037 ft | 179 kts | 359° |
| 2026-04-30 07:43 | 16.09412 | 108.19619 | 2490 ft | 196 kts | 359° |
| 2026-04-30 07:43 | 16.10876 | 108.19630 | 2851 ft | 225 kts | 358° |
| 2026-04-30 07:43 | 16.12537 | 108.19619 | 3347 ft | 251 kts | 358° |
| 2026-04-30 07:43 | 16.14304 | 108.19592 | 4171 ft | 260 kts | 358° |
| 2026-04-30 07:44 | 16.16149 | 108.19559 | 5015 ft | 270 kts | 359° |
| 2026-04-30 07:44 | 16.18056 | 108.19522 | 5918 ft | 276 kts | 359° |
| 2026-04-30 07:44 | 16.20005 | 108.19486 | 6814 ft | 282 kts | 359° |
| 2026-04-30 07:44 | 16.21985 | 108.19450 | 7573 ft | 287 kts | 359° |
| 2026-04-30 07:45 | 16.23992 | 108.19414 | 7883 ft | 289 kts | 359° |
| 2026-04-30 07:45 | 16.25976 | 108.19379 | 7990 ft | 289 kts | 359° |
| 2026-04-30 07:45 | 16.27997 | 108.19344 | 7994 ft | 289 kts | 359° |
| 2026-04-30 07:45 | 16.30014 | 108.19308 | 7995 ft | 289 kts | 359° |
| 2026-04-30 07:46 | 16.32030 | 108.19273 | 7997 ft | 289 kts | 359° |
| 2026-04-30 07:46 | 16.34012 | 108.19116 | 8032 ft | 291 kts | 349° |
| 2026-04-30 07:46 | 16.36001 | 108.18660 | 8479 ft | 294 kts | 347° |
| 2026-04-30 07:46 | 16.38001 | 108.18201 | 9460 ft | 293 kts | 347° |
| 2026-04-30 07:47 | 16.40013 | 108.17747 | 10284 ft | 298 kts | 347° |
| 2026-04-30 07:47 | 16.41376 | 108.17441 | 10638 ft | 309 kts | 347° |
| 2026-04-30 07:47 | 16.42440 | 108.17202 | 10790 ft | 320 kts | 347° |
| 2026-04-30 07:47 | 16.44707 | 108.16693 | 10939 ft | 344 kts | 347° |
| 2026-04-30 07:48 | 16.47071 | 108.16159 | 10974 ft | 348 kts | 347° |
| 2026-04-30 07:48 | 16.49444 | 108.15621 | 10974 ft | 347 kts | 347° |
| 2026-04-30 07:48 | 16.51808 | 108.15085 | 10975 ft | 347 kts | 347° |
| 2026-04-30 07:48 | 16.54170 | 108.14549 | 10974 ft | 348 kts | 347° |
| 2026-04-30 07:49 | 16.55862 | 108.14150 | 10967 ft | 347 kts | 343° |
| 2026-04-30 07:49 | 16.57976 | 108.13090 | 11064 ft | 348 kts | 321° |
| 2026-04-30 07:49 | 16.59588 | 108.11218 | 11777 ft | 346 kts | 300° |
| 2026-04-30 07:49 | 16.60645 | 108.08974 | 12681 ft | 345 kts | 294° |
| 2026-04-30 07:50 | 16.61657 | 108.06690 | 13401 ft | 349 kts | 294° |
| 2026-04-30 07:50 | 16.62660 | 108.04407 | 14086 ft | 352 kts | 294° |
| 2026-04-30 07:50 | 16.63671 | 108.02104 | 14682 ft | 356 kts | 294° |
| 2026-04-30 07:50 | 16.64711 | 107.99736 | 15312 ft | 359 kts | 293° |
| 2026-04-30 07:51 | 16.65746 | 107.97379 | 15921 ft | 363 kts | 293° |
| 2026-04-30 07:51 | 16.66805 | 107.94965 | 16547 ft | 366 kts | 293° |
| 2026-04-30 07:51 | 16.67868 | 107.92540 | 17182 ft | 369 kts | 293° |
| 2026-04-30 07:51 | 16.68943 | 107.90087 | 17799 ft | 372 kts | 293° |
| 2026-04-30 07:52 | 16.70011 | 107.87648 | 18386 ft | 374 kts | 292° |
| 2026-04-30 07:52 | 16.71096 | 107.85165 | 18901 ft | 378 kts | 292° |
| 2026-04-30 07:52 | 16.72195 | 107.82649 | 19403 ft | 381 kts | 292° |
| 2026-04-30 07:52 | 16.73285 | 107.80152 | 19911 ft | 384 kts | 293° |
| 2026-04-30 07:53 | 16.74394 | 107.77610 | 20413 ft | 387 kts | 293° |
| 2026-04-30 07:53 | 16.75518 | 107.75034 | 20916 ft | 390 kts | 293° |
| 2026-04-30 07:53 | 16.76648 | 107.72443 | 21412 ft | 393 kts | 293° |
| 2026-04-30 07:53 | 16.77785 | 107.69834 | 21905 ft | 396 kts | 293° |
| 2026-04-30 07:54 | 16.78931 | 107.67203 | 22401 ft | 399 kts | 293° |
| 2026-04-30 07:54 | 16.80075 | 107.64574 | 22879 ft | 402 kts | 293° |
| 2026-04-30 07:54 | 16.80847 | 107.62802 | 23200 ft | 404 kts | 293° |
| 2026-04-30 07:54 | 16.81342 | 107.61662 | 23385 ft | 406 kts | 293° |
| 2026-04-30 07:55 | 16.82499 | 107.59004 | 23796 ft | 409 kts | 293° |
| 2026-04-30 07:55 | 16.83683 | 107.56282 | 24202 ft | 411 kts | 293° |
| 2026-04-30 07:55 | 16.84869 | 107.53555 | 24588 ft | 414 kts | 293° |
| 2026-04-30 07:55 | 16.86065 | 107.50804 | 24969 ft | 417 kts | 293° |
| 2026-04-30 07:56 | 16.87265 | 107.48042 | 25352 ft | 419 kts | 293° |
| 2026-04-30 07:56 | 16.88618 | 107.45336 | 25710 ft | 423 kts | 302° |
| 2026-04-30 07:56 | 16.90073 | 107.43433 | 25988 ft | 427 kts | 313° |
| 2026-04-30 07:56 | 16.92227 | 107.41549 | 26306 ft | 433 kts | 325° |
| 2026-04-30 07:57 | 16.94908 | 107.40064 | 26651 ft | 438 kts | 333° |
| 2026-04-30 07:57 | 16.97653 | 107.38726 | 26988 ft | 440 kts | 333° |
| 2026-04-30 07:57 | 17.00445 | 107.37361 | 27328 ft | 442 kts | 333° |
| 2026-04-30 07:57 | 17.03241 | 107.35987 | 27647 ft | 445 kts | 332° |
| 2026-04-30 07:58 | 17.06037 | 107.34588 | 27975 ft | 447 kts | 332° |
| 2026-04-30 07:58 | 17.08857 | 107.33165 | 28285 ft | 449 kts | 332° |
| 2026-04-30 07:58 | 17.11680 | 107.31738 | 28594 ft | 451 kts | 332° |
| 2026-04-30 07:58 | 17.14494 | 107.30315 | 28881 ft | 454 kts | 332° |
| 2026-04-30 07:59 | 17.17351 | 107.28873 | 29188 ft | 456 kts | 332° |
| 2026-04-30 07:59 | 17.20230 | 107.27420 | 29467 ft | 458 kts | 332° |
| 2026-04-30 07:59 | 17.22141 | 107.26456 | 29645 ft | 460 kts | 332° |
| 2026-04-30 08:00 | 17.27067 | 107.23970 | 30114 ft | 464 kts | 332° |
| 2026-04-30 08:00 | 17.29353 | 107.22815 | 30309 ft | 465 kts | 332° |
| 2026-04-30 08:00 | 17.33234 | 107.20854 | 30669 ft | 468 kts | 332° |
| 2026-04-30 08:00 | 17.35217 | 107.19853 | 30832 ft | 469 kts | 332° |
| 2026-04-30 08:01 | 17.38132 | 107.18382 | 31100 ft | 471 kts | 332° |
| 2026-04-30 08:01 | 17.41095 | 107.16886 | 31433 ft | 470 kts | 332° |
| 2026-04-30 08:01 | 17.44041 | 107.15399 | 31800 ft | 470 kts | 331° |
| 2026-04-30 08:01 | 17.46992 | 107.13909 | 32166 ft | 468 kts | 331° |
| 2026-04-30 08:02 | 17.52819 | 107.10965 | 32862 ft | 466 kts | 331° |
| 2026-04-30 08:02 | 17.55743 | 107.09486 | 33201 ft | 466 kts | 331° |
| 2026-04-30 08:03 | 17.61578 | 107.06532 | 33845 ft | 464 kts | 330° |
| 2026-04-30 08:03 | 17.67394 | 107.03587 | 34426 ft | 461 kts | 330° |
| 2026-04-30 08:03 | 17.70257 | 107.02136 | 34709 ft | 460 kts | 330° |
| 2026-04-30 08:04 | 17.73136 | 107.00676 | 34981 ft | 459 kts | 330° |
| 2026-04-30 08:04 | 17.76015 | 106.99215 | 35248 ft | 458 kts | 330° |
| 2026-04-30 08:04 | 17.78848 | 106.97777 | 35504 ft | 457 kts | 330° |
| 2026-04-30 08:04 | 17.81712 | 106.96323 | 35775 ft | 455 kts | 330° |
| 2026-04-30 08:05 | 17.84565 | 106.94875 | 36033 ft | 454 kts | 330° |
| 2026-04-30 08:05 | 17.87412 | 106.93428 | 36289 ft | 453 kts | 330° |
| 2026-04-30 08:05 | 17.90259 | 106.91983 | 36540 ft | 452 kts | 330° |
| 2026-04-30 08:05 | 17.93059 | 106.90571 | 36780 ft | 451 kts | 330° |
| 2026-04-30 08:06 | 17.95893 | 106.89146 | 36991 ft | 450 kts | 330° |
| 2026-04-30 08:06 | 18.01538 | 106.86304 | 36997 ft | 448 kts | 330° |
| 2026-04-30 08:07 | 18.07129 | 106.83484 | 36999 ft | 448 kts | 330° |
| 2026-04-30 08:07 | 18.12756 | 106.80643 | 36998 ft | 448 kts | 330° |
| 2026-04-30 08:08 | 18.18368 | 106.77806 | 37000 ft | 448 kts | 330° |
| 2026-04-30 08:08 | 18.23959 | 106.74980 | 37001 ft | 447 kts | 329° |
| 2026-04-30 08:09 | 18.29586 | 106.72132 | 37004 ft | 447 kts | 329° |
| 2026-04-30 08:09 | 18.35170 | 106.69305 | 36990 ft | 447 kts | 329° |
| 2026-04-30 08:10 | 18.40792 | 106.66456 | 36993 ft | 448 kts | 329° |
| 2026-04-30 08:10 | 18.46422 | 106.63602 | 36994 ft | 448 kts | 329° |
| 2026-04-30 08:11 | 18.52049 | 106.60746 | 36991 ft | 448 kts | 329° |
| 2026-04-30 08:11 | 18.57644 | 106.57907 | 37008 ft | 449 kts | 329° |
| 2026-04-30 08:12 | 18.63290 | 106.55061 | 37000 ft | 449 kts | 330° |
| 2026-04-30 08:12 | 18.68913 | 106.52226 | 37006 ft | 450 kts | 329° |
| 2026-04-30 08:13 | 18.74588 | 106.49360 | 37018 ft | 450 kts | 329° |
| 2026-04-30 08:13 | 18.78343 | 106.47462 | 37006 ft | 451 kts | 330° |
| 2026-04-30 08:14 | 18.80057 | 106.46595 | 37009 ft | 451 kts | 330° |
| 2026-04-30 08:14 | 18.85644 | 106.43769 | 37006 ft | 451 kts | 330° |
| 2026-04-30 08:15 | 18.91291 | 106.40910 | 37017 ft | 452 kts | 330° |
| 2026-04-30 08:15 | 18.96973 | 106.38047 | 37017 ft | 452 kts | 330° |
| 2026-04-30 08:16 | 19.02635 | 106.35199 | 37019 ft | 452 kts | 330° |
| 2026-04-30 08:16 | 19.08324 | 106.32333 | 37026 ft | 451 kts | 330° |
| 2026-04-30 08:17 | 19.13980 | 106.29480 | 37032 ft | 451 kts | 330° |
| 2026-04-30 08:17 | 19.19023 | 106.26934 | 37035 ft | 450 kts | 330° |
| 2026-04-30 08:18 | 19.24683 | 106.24076 | 37016 ft | 450 kts | 330° |
| 2026-04-30 08:18 | 19.30338 | 106.21217 | 37016 ft | 449 kts | 330° |
| 2026-04-30 08:19 | 19.35944 | 106.18381 | 36837 ft | 447 kts | 330° |
| 2026-04-30 08:19 | 19.38764 | 106.16954 | 36593 ft | 446 kts | 330° |
| 2026-04-30 08:19 | 19.41527 | 106.15555 | 36352 ft | 446 kts | 330° |
| 2026-04-30 08:19 | 19.44332 | 106.14134 | 36110 ft | 447 kts | 330° |
| 2026-04-30 08:20 | 19.47152 | 106.12704 | 35872 ft | 448 kts | 330° |
| 2026-04-30 08:20 | 19.49978 | 106.11271 | 35636 ft | 449 kts | 330° |
| 2026-04-30 08:20 | 19.52795 | 106.09846 | 35403 ft | 449 kts | 330° |
| 2026-04-30 08:20 | 19.55626 | 106.08425 | 35059 ft | 451 kts | 330° |
| 2026-04-30 08:21 | 19.58481 | 106.06995 | 34346 ft | 455 kts | 330° |
| 2026-04-30 08:21 | 19.61329 | 106.05567 | 33296 ft | 462 kts | 330° |
| 2026-04-30 08:21 | 19.64253 | 106.04102 | 32479 ft | 462 kts | 330° |
| 2026-04-30 08:21 | 19.67138 | 106.02659 | 31908 ft | 455 kts | 330° |
| 2026-04-30 08:22 | 19.70009 | 106.01220 | 31175 ft | 453 kts | 330° |
| 2026-04-30 08:22 | 19.72845 | 105.99797 | 30647 ft | 448 kts | 329° |
| 2026-04-30 08:22 | 19.75607 | 105.98410 | 30169 ft | 441 kts | 329° |
| 2026-04-30 08:22 | 19.78367 | 105.97021 | 29585 ft | 435 kts | 329° |
| 2026-04-30 08:23 | 19.81081 | 105.95655 | 29063 ft | 427 kts | 329° |
| 2026-04-30 08:23 | 19.83746 | 105.94313 | 28547 ft | 420 kts | 329° |
| 2026-04-30 08:23 | 19.86380 | 105.92985 | 28031 ft | 414 kts | 329° |
| 2026-04-30 08:23 | 19.88930 | 105.91699 | 27533 ft | 408 kts | 329° |
| 2026-04-30 08:24 | 19.91480 | 105.90412 | 27043 ft | 402 kts | 329° |
| 2026-04-30 08:24 | 19.93993 | 105.89143 | 26555 ft | 397 kts | 329° |
| 2026-04-30 08:24 | 19.96490 | 105.87881 | 26060 ft | 395 kts | 329° |
| 2026-04-30 08:24 | 19.98969 | 105.86628 | 25570 ft | 393 kts | 329° |
| 2026-04-30 08:25 | 20.01426 | 105.85386 | 25088 ft | 389 kts | 329° |
| 2026-04-30 08:25 | 20.03838 | 105.84167 | 24437 ft | 387 kts | 329° |
| 2026-04-30 08:25 | 20.06297 | 105.82920 | 23179 ft | 397 kts | 330° |
| 2026-04-30 08:25 | 20.08778 | 105.81662 | 22099 ft | 398 kts | 330° |
| 2026-04-30 08:26 | 20.11265 | 105.80403 | 21233 ft | 393 kts | 330° |
| 2026-04-30 08:26 | 20.13731 | 105.79157 | 20386 ft | 388 kts | 330° |
| 2026-04-30 08:26 | 20.16168 | 105.77924 | 19564 ft | 384 kts | 330° |
| 2026-04-30 08:26 | 20.18575 | 105.76705 | 18756 ft | 381 kts | 331° |
| 2026-04-30 08:27 | 20.20931 | 105.75512 | 17929 ft | 378 kts | 331° |
| 2026-04-30 08:27 | 20.23302 | 105.74311 | 17078 ft | 373 kts | 331° |
| 2026-04-30 08:27 | 20.25646 | 105.73124 | 16378 ft | 371 kts | 331° |
| 2026-04-30 08:27 | 20.27954 | 105.71956 | 15789 ft | 369 kts | 331° |
| 2026-04-30 08:28 | 20.30259 | 105.70788 | 15256 ft | 365 kts | 331° |
| 2026-04-30 08:28 | 20.32544 | 105.69629 | 15047 ft | 365 kts | 331° |
| 2026-04-30 08:28 | 20.34856 | 105.68455 | 14942 ft | 368 kts | 331° |
| 2026-04-30 08:28 | 20.37166 | 105.67284 | 14702 ft | 366 kts | 331° |
| 2026-04-30 08:29 | 20.39458 | 105.66122 | 14478 ft | 364 kts | 331° |
| 2026-04-30 08:29 | 20.41745 | 105.65030 | 14249 ft | 365 kts | 337° |
| 2026-04-30 08:29 | 20.44216 | 105.64329 | 14028 ft | 368 kts | 348° |
| 2026-04-30 08:29 | 20.46779 | 105.64112 | 13805 ft | 370 kts | 357° |
| 2026-04-30 08:30 | 20.49347 | 105.64109 | 13555 ft | 367 kts | 357° |
| 2026-04-30 08:30 | 20.51905 | 105.64094 | 13300 ft | 365 kts | 357° |
| 2026-04-30 08:30 | 20.54415 | 105.64073 | 13038 ft | 363 kts | 356° |
| 2026-04-30 08:30 | 20.56937 | 105.64050 | 12799 ft | 361 kts | 356° |
| 2026-04-30 08:31 | 20.59447 | 105.64026 | 12552 ft | 359 kts | 356° |
| 2026-04-30 08:31 | 20.61938 | 105.64003 | 12301 ft | 357 kts | 356° |
| 2026-04-30 08:31 | 20.64401 | 105.63979 | 12069 ft | 356 kts | 356° |
| 2026-04-30 08:31 | 20.66873 | 105.63956 | 11826 ft | 354 kts | 356° |
| 2026-04-30 08:32 | 20.69335 | 105.63935 | 11524 ft | 352 kts | 356° |
| 2026-04-30 08:32 | 20.71796 | 105.63913 | 11088 ft | 350 kts | 356° |
| 2026-04-30 08:32 | 20.74201 | 105.63891 | 10626 ft | 346 kts | 356° |
| 2026-04-30 08:32 | 20.76581 | 105.63869 | 10355 ft | 335 kts | 356° |
| 2026-04-30 08:33 | 20.78872 | 105.63852 | 10229 ft | 321 kts | 356° |
| 2026-04-30 08:33 | 20.81029 | 105.63835 | 10109 ft | 306 kts | 356° |
| 2026-04-30 08:33 | 20.83124 | 105.63818 | 9937 ft | 295 kts | 356° |
| 2026-04-30 08:33 | 20.85134 | 105.63799 | 9625 ft | 290 kts | 356° |
| 2026-04-30 08:34 | 20.87163 | 105.63777 | 9254 ft | 289 kts | 356° |
| 2026-04-30 08:34 | 20.89143 | 105.63757 | 8898 ft | 287 kts | 356° |
| 2026-04-30 08:34 | 20.91140 | 105.63737 | 8524 ft | 284 kts | 356° |
| 2026-04-30 08:34 | 20.93131 | 105.63716 | 7952 ft | 287 kts | 356° |
| 2026-04-30 08:35 | 20.95107 | 105.63695 | 7394 ft | 286 kts | 357° |
| 2026-04-30 08:35 | 20.97103 | 105.63673 | 6837 ft | 284 kts | 357° |
| 2026-04-30 08:35 | 20.99076 | 105.63656 | 6335 ft | 282 kts | 358° |
| 2026-04-30 08:35 | 21.01002 | 105.63638 | 6061 ft | 279 kts | 357° |
| 2026-04-30 08:36 | 21.02938 | 105.63406 | 5954 ft | 279 kts | 346° |
| 2026-04-30 08:36 | 21.04799 | 105.62845 | 5674 ft | 276 kts | 341° |
| 2026-04-30 08:36 | 21.06633 | 105.62255 | 5416 ft | 271 kts | 342° |
| 2026-04-30 08:36 | 21.08384 | 105.61702 | 5324 ft | 260 kts | 342° |
| 2026-04-30 08:37 | 21.10084 | 105.61161 | 5228 ft | 249 kts | 342° |
| 2026-04-30 08:37 | 21.11727 | 105.60642 | 5025 ft | 243 kts | 342° |
| 2026-04-30 08:37 | 21.13355 | 105.60130 | 4730 ft | 243 kts | 342° |
| 2026-04-30 08:37 | 21.14979 | 105.59618 | 4410 ft | 243 kts | 342° |
| 2026-04-30 08:38 | 21.16576 | 105.59115 | 4162 ft | 241 kts | 344° |
| 2026-04-30 08:38 | 21.18222 | 105.59013 | 4001 ft | 234 kts | 13° |
| 2026-04-30 08:38 | 21.19777 | 105.59595 | 3985 ft | 237 kts | 21° |
| 2026-04-30 08:38 | 21.21268 | 105.60202 | 3978 ft | 221 kts | 21° |
| 2026-04-30 08:39 | 21.22694 | 105.60771 | 3990 ft | 220 kts | 20° |
| 2026-04-30 08:39 | 21.24121 | 105.61341 | 3994 ft | 221 kts | 20° |
| 2026-04-30 08:39 | 21.25465 | 105.61981 | 3977 ft | 202 kts | 36° |
| 2026-04-30 08:39 | 21.26301 | 105.63056 | 3984 ft | 179 kts | 68° |
| 2026-04-30 08:40 | 21.26539 | 105.64297 | 3996 ft | 170 kts | 91° |
| 2026-04-30 08:40 | 21.26406 | 105.65570 | 3985 ft | 170 kts | 104° |
| 2026-04-30 08:40 | 21.26184 | 105.66498 | 3993 ft | 169 kts | 107° |
| 2026-04-30 08:40 | 21.25852 | 105.67689 | 3898 ft | 166 kts | 108° |
| 2026-04-30 08:41 | 21.25510 | 105.68882 | 3490 ft | 168 kts | 108° |
| 2026-04-30 08:41 | 21.25167 | 105.70074 | 3048 ft | 167 kts | 107° |
| 2026-04-30 08:41 | 21.24823 | 105.71270 | 2638 ft | 167 kts | 107° |
| 2026-04-30 08:41 | 21.24489 | 105.72444 | 2227 ft | 167 kts | 108° |
| 2026-04-30 08:42 | 21.24216 | 105.73389 | 1903 ft | 166 kts | 107° |
| 2026-04-30 08:42 | 21.23912 | 105.74569 | 1522 ft | 163 kts | 94° |
| 2026-04-30 08:42 | 21.24236 | 105.75686 | 1326 ft | 164 kts | 44° |
| 2026-04-30 08:42 | 21.25267 | 105.76226 | 1641 ft | 170 kts | 4° |
| 2026-04-30 08:43 | 21.26359 | 105.75907 | 1451 ft | 162 kts | 315° |
| 2026-04-30 08:43 | 21.26831 | 105.74830 | 1533 ft | 172 kts | 272° |
| 2026-04-30 08:43 | 21.26838 | 105.73585 | 1488 ft | 163 kts | 257° |
| 2026-04-30 08:43 | 21.26237 | 105.72576 | 1497 ft | 164 kts | 210° |
| 2026-04-30 08:44 | 21.25196 | 105.72461 | 1437 ft | 147 kts | 151° |
| 2026-04-30 08:44 | 21.24491 | 105.73201 | 1240 ft | 142 kts | 120° |
| 2026-04-30 08:44 | 21.24064 | 105.74154 | 1044 ft | 142 kts | 110° |
| 2026-04-30 08:44 | 21.23735 | 105.75154 | 854 ft | 143 kts | 107° |
| 2026-04-30 08:45 | 21.23436 | 105.76161 | 677 ft | 142 kts | 107° |
| 2026-04-30 08:45 | 21.23140 | 105.77174 | 485 ft | 142 kts | 108° |
| 2026-04-30 08:45 | 21.22829 | 105.78179 | 306 ft | 141 kts | 108° |
| 2026-04-30 08:45 | 21.22539 | 105.79188 | 120 ft | 141 kts | 107° |
| 2026-04-30 08:46 | 21.22276 | 105.80171 | 51 ft | 128 kts | 110° |
| 2026-04-30 08:46 | 21.22036 | 105.80943 | 48 ft | 87 kts | 108° |
| 2026-04-30 08:46 | 21.21939 | 105.81240 | 49 ft | 22 kts | 123° |
| 2026-04-30 08:46 | 21.21856 | 105.81339 | 49 ft | 13 kts | 137° |
| 2026-04-30 08:47 | 21.21787 | 105.81407 | 47 ft | 14 kts | 137° |
| 2026-04-30 08:47 | 21.21708 | 105.81485 | 49 ft | 14 kts | 137° |
| 2026-04-30 08:47 | 21.21648 | 105.81532 | 51 ft | 11 kts | 149° |
| 2026-04-30 08:47 | 21.21600 | 105.81558 | 51 ft | 12 kts | 158° |
| 2026-04-30 08:48 | 21.21513 | 105.81547 | 51 ft | 11 kts | 198° |
| 2026-04-30 08:48 | 21.21470 | 105.81483 | 50 ft | 11 kts | 276° |
| 2026-04-30 08:48 | 21.21488 | 105.81424 | 50 ft | 13 kts | 287° |
| 2026-04-30 08:48 | 21.21520 | 105.81314 | 47 ft | 17 kts | 287° |
| 2026-04-30 08:49 | 21.21552 | 105.81201 | 49 ft | 16 kts | 287° |
| 2026-04-30 08:49 | 21.21583 | 105.81095 | 49 ft | 13 kts | 288° |
| 2026-04-30 08:49 | 21.21609 | 105.81007 | 49 ft | 12 kts | 287° |
| 2026-04-30 08:49 | 21.21631 | 105.80932 | 49 ft | 12 kts | 287° |
| 2026-04-30 08:50 | 21.21659 | 105.80836 | 49 ft | 15 kts | 287° |
| 2026-04-30 08:50 | 21.21687 | 105.80735 | 49 ft | 13 kts | 287° |
| 2026-04-30 08:50 | 21.21717 | 105.80634 | 49 ft | 15 kts | 287° |
| 2026-04-30 08:50 | 21.21746 | 105.80535 | 49 ft | 14 kts | 288° |
| 2026-04-30 08:51 | 21.21771 | 105.80446 | 49 ft | 11 kts | 288° |
| 2026-04-30 08:51 | 21.21793 | 105.80370 | 47 ft | 12 kts | 287° |
| 2026-04-30 08:51 | 21.21822 | 105.80271 | 46 ft | 15 kts | 288° |
| 2026-04-30 08:51 | 21.21852 | 105.80168 | 49 ft | 13 kts | 287° |
| 2026-04-30 08:52 | 21.21881 | 105.80065 | 49 ft | 16 kts | 287° |
| 2026-04-30 08:52 | 21.21917 | 105.79940 | 49 ft | 18 kts | 287° |
| 2026-04-30 08:52 | 21.21955 | 105.79810 | 46 ft | 16 kts | 287° |
| 2026-04-30 08:52 | 21.21988 | 105.79695 | 49 ft | 16 kts | 287° |
| 2026-04-30 08:53 | 21.22016 | 105.79596 | 49 ft | 10 kts | 285° |
| 2026-04-30 08:53 | 21.21996 | 105.79539 | 48 ft | 8 kts | 217° |
| 2026-04-30 08:53 | 21.21958 | 105.79492 | 49 ft | 9 kts | 258° |
| 2026-04-30 08:53 | 21.21974 | 105.79423 | 49 ft | 4 kts | 285° |
| 2026-04-30 08:54 | 21.21975 | 105.79418 | 49 ft | 0 kts | 281° |
| 2026-04-30 08:54 | 21.21974 | 105.79400 | 49 ft | 5 kts | 265° |
| 2026-04-30 08:54 | 21.21949 | 105.79372 | 49 ft | 6 kts | 211° |
| 2026-04-30 08:55 | 21.21935 | 105.79367 | 49 ft | 3 kts | 198° |
| 2026-04-30 08:55 | 21.21923 | 105.79363 | 49 ft | 2 kts | 197° |
| 2026-04-30 08:55 | 21.21900 | 105.79356 | 49 ft | 5 kts | 197° |
| 2026-04-30 08:55 | 21.21884 | 105.79350 | 47 ft | 0 kts | 198° |
| 2026-04-30 08:56 | 21.21881 | 105.79349 | 48 ft | 1 kts | 198° |